Roatan, Honduras
Current Conditions -  °F | °C
As of 8:00 PM on Wednesday 17 Dec 2014 (Local Time) from MHRO Reporting Station
Broken Clouds Broken Clouds  
Wind Chill: 73°   Ceiling: 7000
Heat Index: 73°   Visibility: 6mi
Dew Point: 68°   Wind: 0mph
Humidity: 83%   Direction: NA
Pressure: 30.06"   Gusts: NA
Location:  16.33°N, 86.52°W
Report Text: MHRO 180200Z 00000KT 9999 SCT015 BKN070 23/20 Q1018 A3006NOSIG
Loading
Personal Weather Stations






























Interactive Weather Map New forecast layout! Learn more

10-Day Weather Forecast

Advertisements
Track Severe Weather on mobile